createdAt,value
2019-05-06T00:01:54.027Z,99.90
2019-05-06T00:04:24.722Z,99.90
2019-05-06T00:06:54.833Z,99.90
2019-05-06T00:09:24.440Z,99.90
2019-05-06T00:11:54.620Z,99.90
2019-05-06T00:14:24.319Z,99.90
2019-05-06T00:16:54.763Z,99.90
2019-05-06T00:19:24.783Z,99.90
2019-05-06T00:21:54.279Z,99.90
2019-05-06T00:24:25.367Z,99.90
2019-05-06T00:27:01.427Z,99.90
2019-05-06T00:29:32.105Z,99.90
2019-05-06T00:32:01.550Z,99.90
2019-05-06T00:34:30.652Z,99.90
2019-05-06T00:36:59.772Z,99.90
2019-05-06T00:39:50.966Z,99.90
2019-05-06T00:42:45.204Z,99.90
2019-05-06T00:45:14.981Z,99.90
2019-05-06T00:47:44.471Z,99.90
2019-05-06T00:50:14.361Z,99.90
2019-05-06T00:52:44.725Z,99.90
2019-05-06T00:55:13.968Z,99.90
2019-05-06T00:57:46.585Z,99.90
2019-05-06T01:00:19.147Z,99.90
2019-05-06T01:02:48.285Z,99.90
2019-05-06T01:05:17.935Z,99.90
2019-05-06T01:07:47.046Z,99.90
2019-05-06T01:10:16.745Z,99.90
2019-05-06T01:12:55.293Z,99.90
2019-05-06T01:15:25.371Z,99.90
2019-05-06T01:17:54.483Z,99.90
2019-05-06T01:20:24.722Z,99.90
2019-05-06T01:22:54.432Z,99.90
2019-05-06T01:25:23.783Z,99.90
2019-05-06T01:27:54.046Z,99.90
2019-05-06T01:30:24.332Z,99.90
2019-05-06T01:32:54.383Z,99.90
2019-05-06T01:35:24.512Z,99.90
2019-05-06T01:38:14.564Z,99.90
2019-05-06T01:41:13.615Z,99.90
2019-05-06T01:43:44.302Z,99.90
2019-05-06T01:46:13.984Z,99.90
2019-05-06T01:48:48.965Z,99.90
2019-05-06T01:51:20.096Z,99.90
2019-05-06T01:53:49.711Z,99.90
2019-05-06T01:56:19.078Z,99.90
2019-05-06T01:58:48.242Z,99.90
2019-05-06T02:01:17.417Z,99.90
2019-05-06T02:03:46.806Z,99.90
2019-05-06T02:06:16.167Z,99.90
2019-05-06T02:08:45.557Z,99.90
2019-05-06T02:11:15.092Z,99.90
2019-05-06T02:13:44.466Z,99.90
2019-05-06T02:16:14.539Z,99.90
2019-05-06T02:18:44.797Z,99.90
2019-05-06T02:21:19.689Z,99.90
2019-05-06T02:23:54.132Z,99.90
2019-05-06T02:26:23.893Z,99.90
2019-05-06T02:28:55.189Z,99.90
2019-05-06T02:31:42.143Z,99.90
2019-05-06T02:34:20.172Z,99.90
2019-05-06T02:37:06.129Z,99.90
2019-05-06T02:39:34.306Z,99.90
2019-05-06T02:42:04.189Z,99.90
2019-05-06T02:44:33.753Z,99.90
2019-05-06T02:47:23.211Z,99.90
2019-05-06T02:49:56.352Z,99.90
2019-05-06T02:52:25.501Z,99.90
2019-05-06T02:54:54.875Z,99.90
2019-05-06T02:57:24.199Z,99.90
2019-05-06T02:59:55.234Z,99.90
2019-05-06T03:02:38.000Z,99.90
2019-05-06T03:04:56.118Z,99.90
2019-05-06T03:07:25.322Z,99.90
2019-05-06T03:09:54.443Z,99.90
2019-05-06T03:12:23.616Z,99.90
2019-05-06T03:14:53.463Z,99.90
2019-05-06T03:17:23.681Z,99.90
2019-05-06T03:19:54.628Z,99.90
2019-05-06T03:22:34.484Z,99.90
2019-05-06T03:25:13.568Z,99.90
2019-05-06T03:27:43.886Z,99.90
2019-05-06T03:30:16.503Z,99.90
2019-05-06T03:33:20.022Z,99.90
2019-05-06T03:35:33.271Z,99.90
2019-05-06T03:37:47.171Z,99.90
2019-05-06T03:40:16.490Z,99.90
2019-05-06T03:42:45.885Z,99.90
2019-05-06T03:45:34.398Z,99.90
2019-05-06T03:48:07.280Z,99.90
2019-05-06T03:50:36.435Z,99.90
2019-05-06T03:53:06.772Z,99.90
2019-05-06T03:55:36.383Z,99.90
2019-05-06T03:58:05.520Z,99.90
2019-05-06T04:00:36.115Z,99.90
2019-05-06T04:03:05.533Z,99.90
2019-05-06T04:05:35.116Z,99.90
2019-05-06T04:08:04.239Z,99.90
2019-05-06T04:10:36.848Z,99.90
2019-05-06T04:13:05.862Z,99.90
2019-05-06T04:15:57.726Z,99.90
2019-05-06T04:18:27.530Z,99.90
2019-05-06T04:21:16.947Z,99.90
2019-05-06T04:24:07.623Z,99.90
2019-05-06T04:26:56.052Z,99.90
2019-05-06T04:29:27.843Z,99.90
2019-05-06T04:31:57.215Z,99.90
2019-05-06T04:34:26.655Z,99.90
2019-05-06T04:36:56.082Z,99.90
2019-05-06T04:39:25.291Z,99.90
2019-05-06T04:41:55.011Z,99.90
2019-05-06T04:44:24.537Z,99.90
2019-05-06T04:46:54.427Z,99.90
2019-05-06T04:49:23.967Z,99.90
2019-05-06T04:51:54.064Z,99.90
2019-05-06T04:54:26.478Z,99.90
2019-05-06T04:56:54.370Z,99.90
2019-05-06T04:59:23.540Z,99.90
2019-05-06T05:01:53.669Z,99.90
2019-05-06T05:04:31.741Z,99.90
2019-05-06T05:06:54.183Z,99.90
2019-05-06T05:09:23.820Z,99.90
2019-05-06T05:12:02.485Z,99.90
2019-05-06T05:14:36.802Z,99.90
2019-05-06T05:17:34.178Z,99.90
2019-05-06T05:20:03.383Z,99.90
2019-05-06T05:22:32.614Z,99.90
2019-05-06T05:25:03.485Z,99.90
2019-05-06T05:27:32.992Z,99.90
2019-05-06T05:30:02.250Z,99.90
2019-05-06T05:32:32.142Z,99.90
2019-05-06T05:35:02.171Z,99.90
2019-05-06T05:37:32.857Z,99.90
2019-05-06T05:40:03.107Z,99.90
2019-05-06T05:42:52.155Z,99.90
2019-05-06T05:45:22.195Z,99.90
2019-05-06T05:47:53.606Z,99.90
2019-05-06T05:50:35.931Z,99.90
2019-05-06T05:53:05.041Z,99.90
2019-05-06T05:55:34.522Z,99.90
2019-05-06T05:58:03.669Z,99.90
2019-05-06T06:00:34.602Z,99.90
2019-05-06T06:03:06.904Z,99.90
2019-05-06T06:05:34.875Z,99.90
2019-05-06T06:08:04.030Z,99.90
2019-05-06T06:10:42.666Z,99.90
2019-05-06T06:13:12.805Z,99.90
2019-05-06T06:16:04.324Z,99.90
2019-05-06T06:18:48.335Z,99.90
2019-05-06T06:21:32.274Z,99.90
2019-05-06T06:24:06.633Z,99.90
2019-05-06T06:26:35.770Z,99.90
2019-05-06T06:29:05.146Z,99.90
2019-05-06T06:31:42.686Z,99.90
2019-05-06T06:34:17.369Z,99.90
2019-05-06T06:36:55.587Z,99.90
2019-05-06T06:39:28.654Z,99.90
2019-05-06T06:41:57.859Z,99.90
2019-05-06T06:44:29.982Z,99.90
2019-05-06T06:46:59.110Z,99.90
2019-05-06T06:49:28.318Z,99.90
2019-05-06T06:51:58.111Z,99.90
2019-05-06T06:54:27.320Z,99.90
2019-05-06T06:57:09.660Z,99.90
2019-05-06T07:00:04.816Z,99.90
2019-05-06T07:03:02.838Z,99.90
2019-05-06T07:05:46.617Z,99.90
2019-05-06T07:08:15.725Z,99.90
2019-05-06T07:10:44.894Z,99.90
2019-05-06T07:13:15.601Z,99.90
2019-05-06T07:15:44.913Z,99.90
2019-05-06T07:18:14.019Z,99.90
2019-05-06T07:20:52.575Z,99.90
2019-05-06T07:23:25.162Z,99.90
2019-05-06T07:25:55.211Z,99.90
2019-05-06T07:28:24.964Z,99.90
2019-05-06T07:30:54.678Z,99.90
2019-05-06T07:33:23.871Z,99.90
2019-05-06T07:35:54.765Z,99.90
2019-05-06T07:38:23.902Z,99.90
2019-05-06T07:41:04.169Z,99.90
2019-05-06T07:43:38.268Z,99.90
2019-05-06T07:46:15.535Z,99.90
2019-05-06T07:48:44.910Z,99.90
2019-05-06T07:51:14.306Z,99.90
2019-05-06T07:53:43.470Z,99.90
2019-05-06T07:56:12.806Z,99.90
2019-05-06T07:58:43.348Z,99.90
2019-05-06T08:01:13.610Z,99.90
2019-05-06T08:03:43.141Z,99.90
2019-05-06T08:06:13.209Z,99.90
2019-05-06T08:08:43.456Z,99.90
2019-05-06T08:11:13.042Z,99.90
2019-05-06T08:13:43.474Z,99.90
2019-05-06T08:16:13.248Z,99.90
2019-05-06T08:18:42.776Z,99.90
2019-05-06T08:21:22.410Z,99.90
2019-05-06T08:23:52.432Z,99.90
2019-05-06T08:26:22.584Z,99.90
2019-05-06T08:28:52.643Z,99.90
2019-05-06T08:31:23.070Z,99.90
2019-05-06T08:33:52.753Z,99.90
2019-05-06T08:36:29.230Z,99.90
2019-05-06T08:38:59.658Z,99.90
2019-05-06T08:41:29.138Z,99.90
2019-05-06T08:43:58.280Z,99.90
2019-05-06T08:46:27.466Z,99.90
2019-05-06T08:48:56.584Z,99.90
2019-05-06T08:51:33.758Z,99.90
2019-05-06T08:54:17.962Z,99.90
2019-05-06T08:56:47.479Z,99.90
2019-05-06T08:59:16.610Z,99.90
2019-05-06T09:01:48.274Z,99.90
2019-05-06T09:04:17.410Z,99.90
2019-05-06T09:06:46.753Z,99.90
2019-05-06T09:09:16.164Z,99.90
2019-05-06T09:11:45.302Z,99.90
2019-05-06T09:14:14.449Z,99.90
2019-05-06T09:16:44.254Z,99.90
2019-05-06T09:19:13.571Z,99.90
2019-05-06T09:21:45.987Z,99.90
2019-05-06T09:24:13.557Z,99.90
2019-05-06T09:26:52.034Z,99.90
2019-05-06T09:29:32.621Z,99.90
2019-05-06T09:32:04.454Z,99.90
2019-05-06T09:34:45.703Z,99.90
2019-05-06T09:37:15.478Z,99.90
2019-05-06T09:39:46.010Z,99.90
2019-05-06T09:42:16.222Z,99.90
2019-05-06T09:44:50.298Z,99.90
2019-05-06T09:47:32.950Z,99.90
2019-05-06T09:50:02.784Z,99.90
2019-05-06T09:52:33.352Z,99.90
2019-05-06T09:55:12.917Z,99.90
2019-05-06T09:58:05.166Z,99.90
2019-05-06T10:00:36.610Z,99.90
2019-05-06T10:03:06.014Z,99.90
2019-05-06T10:05:35.237Z,99.90
2019-05-06T10:08:04.745Z,99.90
2019-05-06T10:10:34.136Z,99.90
2019-05-06T10:13:03.287Z,99.90
2019-05-06T10:15:32.807Z,99.90
2019-05-06T10:18:08.664Z,99.90
2019-05-06T10:20:43.271Z,99.90
2019-05-06T10:23:14.355Z,99.90
2019-05-06T10:25:44.073Z,99.90
2019-05-06T10:28:52.341Z,99.90
2019-05-06T10:31:22.148Z,99.90
2019-05-06T10:34:09.484Z,99.90
2019-05-06T10:37:11.302Z,99.90
2019-05-06T10:39:30.353Z,99.90
2019-05-06T10:42:13.242Z,99.90
2019-05-06T10:45:27.126Z,99.90
2019-05-06T10:47:56.859Z,99.90
2019-05-06T10:50:27.475Z,99.90
2019-05-06T10:53:14.320Z,99.90
2019-05-06T10:55:47.195Z,99.90
2019-05-06T10:58:16.322Z,99.90
2019-05-06T11:00:45.842Z,99.90
2019-05-06T11:03:22.415Z,99.90
2019-05-06T11:05:53.512Z,99.90
2019-05-06T11:08:22.403Z,99.90
2019-05-06T11:10:53.420Z,99.90
2019-05-06T11:13:24.494Z,99.90
2019-05-06T11:15:55.754Z,99.90
2019-05-06T11:18:25.475Z,99.90
2019-05-06T11:20:56.307Z,99.90
2019-05-06T11:23:25.461Z,99.90
2019-05-06T11:25:54.595Z,99.90
2019-05-06T11:28:46.285Z,99.90
2019-05-06T11:31:37.482Z,99.90
2019-05-06T11:34:28.489Z,99.90
2019-05-06T11:37:15.515Z,99.90
2019-05-06T11:39:44.876Z,99.90
2019-05-06T11:42:27.642Z,99.90
2019-05-06T11:44:44.938Z,99.70
2019-05-06T11:47:14.125Z,98.00
2019-05-06T11:49:44.093Z,97.90
2019-05-06T11:52:13.453Z,98.00
2019-05-06T11:54:42.922Z,98.10
2019-05-06T11:57:12.663Z,98.00
2019-05-06T11:59:43.379Z,97.70
2019-05-06T12:02:16.319Z,97.60
2019-05-06T12:04:46.095Z,98.40
2019-05-06T12:07:16.162Z,98.10
2019-05-06T12:09:45.476Z,98.10
2019-05-06T12:12:14.868Z,99.10
2019-05-06T12:14:44.812Z,98.40
2019-05-06T12:17:14.198Z,98.50
2019-05-06T12:19:43.451Z,98.90
2019-05-06T12:22:12.774Z,98.70
2019-05-06T12:24:43.100Z,98.60
2019-05-06T12:27:15.804Z,98.10
2019-05-06T12:29:44.926Z,98.20
2019-05-06T12:32:37.962Z,98.00
2019-05-06T12:35:07.181Z,96.80
2019-05-06T12:37:37.601Z,97.90
2019-05-06T12:40:06.917Z,96.90
2019-05-06T12:42:43.957Z,96.40
2019-05-06T12:45:27.159Z,95.60
2019-05-06T12:48:08.715Z,95.40
2019-05-06T12:50:38.294Z,94.30
2019-05-06T12:53:07.430Z,94.50
2019-05-06T12:55:36.540Z,94.70
2019-05-06T12:58:05.750Z,96.30
2019-05-06T13:00:34.947Z,95.40
2019-05-06T13:03:04.795Z,95.90
2019-05-06T13:05:33.915Z,96.50
2019-05-06T13:08:05.293Z,94.90
2019-05-06T13:10:33.914Z,94.80
2019-05-06T13:13:04.768Z,94.80
2019-05-06T13:15:34.018Z,94.40
2019-05-06T13:18:07.100Z,94.70
2019-05-06T13:20:35.130Z,95.20
2019-05-06T13:23:28.874Z,94.70
2019-05-06T13:25:58.052Z,94.80
2019-05-06T13:28:30.532Z,94.50
2019-05-06T13:31:13.400Z,95.00
2019-05-06T13:33:34.680Z,94.60
2019-05-06T13:36:03.932Z,95.20
2019-05-06T13:38:33.339Z,95.10
2019-05-06T13:41:03.300Z,94.70
2019-05-06T13:43:46.116Z,95.50
2019-05-06T13:46:18.882Z,95.00
2019-05-06T13:48:57.426Z,96.00
2019-05-06T13:51:29.100Z,96.30
2019-05-06T13:53:58.555Z,96.60
2019-05-06T13:56:27.749Z,97.10
2019-05-06T13:58:56.884Z,97.00
2019-05-06T14:01:27.657Z,97.20
2019-05-06T14:03:57.058Z,97.00
2019-05-06T14:06:26.174Z,96.60
2019-05-06T14:08:55.326Z,96.40
2019-05-06T14:11:24.419Z,96.30
2019-05-06T14:13:53.894Z,96.90
2019-05-06T14:16:24.509Z,96.40
2019-05-06T14:18:54.451Z,96.20
2019-05-06T14:21:23.562Z,96.60
2019-05-06T14:23:53.087Z,97.30
2019-05-06T14:26:33.255Z,97.40
2019-05-06T14:29:06.547Z,97.50
2019-05-06T14:31:39.111Z,96.40
2019-05-06T14:34:08.278Z,95.50
2019-05-06T14:36:37.842Z,95.60
2019-05-06T14:39:12.528Z,96.50
2019-05-06T14:41:44.833Z,96.90
2019-05-06T14:44:14.253Z,96.10
2019-05-06T14:46:58.626Z,96.00
2019-05-06T14:49:28.046Z,96.40
2019-05-06T14:51:57.479Z,96.40
2019-05-06T14:54:26.863Z,96.80
2019-05-06T14:57:00.008Z,96.90
2019-05-06T14:59:29.158Z,96.70
2019-05-06T15:01:58.280Z,96.70
2019-05-06T15:04:27.707Z,97.10
2019-05-06T15:06:57.071Z,97.30
2019-05-06T15:09:26.206Z,96.60
2019-05-06T15:11:55.332Z,96.60
2019-05-06T15:14:24.463Z,97.10
2019-05-06T15:16:53.574Z,97.40
2019-05-06T15:19:22.962Z,97.20
2019-05-06T15:21:53.104Z,96.90
2019-05-06T15:24:24.368Z,97.20
2019-05-06T15:26:53.305Z,96.90
2019-05-06T15:29:23.657Z,97.50
2019-05-06T15:32:13.008Z,97.90
2019-05-06T15:34:53.821Z,97.90
2019-05-06T15:37:26.042Z,98.10
2019-05-06T15:39:55.182Z,98.40
2019-05-06T15:42:24.291Z,98.00
2019-05-06T15:44:53.420Z,98.20
2019-05-06T15:47:22.800Z,98.10
2019-05-06T15:49:52.789Z,98.00
2019-05-06T15:52:23.438Z,98.10
2019-05-06T15:54:52.899Z,98.30
2019-05-06T15:57:22.914Z,98.10
2019-05-06T15:59:52.920Z,98.10
2019-05-06T16:02:23.217Z,98.40
2019-05-06T16:04:52.791Z,98.40
2019-05-06T16:07:25.370Z,97.70
2019-05-06T16:09:55.008Z,97.80
2019-05-06T16:12:23.605Z,97.60
2019-05-06T16:14:53.180Z,97.80
2019-05-06T16:17:23.824Z,98.00
2019-05-06T16:19:53.223Z,97.90
2019-05-06T16:22:22.778Z,98.40
2019-05-06T16:25:04.149Z,98.60
2019-05-06T16:27:33.510Z,98.80
2019-05-06T16:30:03.594Z,99.30
2019-05-06T16:32:33.718Z,99.30
2019-05-06T16:35:03.987Z,98.40
2019-05-06T16:37:33.114Z,99.00
2019-05-06T16:40:02.920Z,98.70
2019-05-06T16:42:32.348Z,98.80
2019-05-06T16:45:06.974Z,99.70
2019-05-06T16:47:39.186Z,99.40
2019-05-06T16:50:13.184Z,99.80
2019-05-06T16:52:44.814Z,99.50
2019-05-06T16:55:17.017Z,99.70
2019-05-06T16:57:52.546Z,99.90
2019-05-06T17:00:23.794Z,99.90
2019-05-06T17:03:00.243Z,99.90
2019-05-06T17:05:48.530Z,99.90
2019-05-06T17:08:17.904Z,99.90
2019-05-06T17:10:47.587Z,99.90
2019-05-06T17:13:16.730Z,99.90
2019-05-06T17:15:45.831Z,99.90
2019-05-06T17:18:14.967Z,99.90
2019-05-06T17:20:44.590Z,99.90
2019-05-06T17:23:13.742Z,99.90
2019-05-06T17:25:43.127Z,99.90
2019-05-06T17:28:25.466Z,99.90
2019-05-06T17:31:04.208Z,99.90
2019-05-06T17:33:38.370Z,99.90
2019-05-06T17:36:09.156Z,99.90
2019-05-06T17:38:52.445Z,99.90
2019-05-06T17:41:26.128Z,99.90
2019-05-06T17:43:54.435Z,99.90
2019-05-06T17:46:27.878Z,99.90
2019-05-06T17:49:07.259Z,99.90
2019-05-06T17:51:56.671Z,99.90
2019-05-06T17:54:26.380Z,99.90
2019-05-06T17:56:57.464Z,99.90
2019-05-06T17:59:27.617Z,99.90
2019-05-06T18:01:59.401Z,99.90
2019-05-06T18:04:28.841Z,99.90
2019-05-06T18:06:57.971Z,99.90
2019-05-06T18:09:27.126Z,99.90
2019-05-06T18:11:59.305Z,99.90
2019-05-06T18:14:27.794Z,99.90
2019-05-06T18:16:57.349Z,99.90
2019-05-06T18:19:26.514Z,99.90
2019-05-06T18:21:55.638Z,99.90
2019-05-06T18:24:25.043Z,99.90
2019-05-06T18:26:54.200Z,99.90
2019-05-06T18:29:23.394Z,99.90
2019-05-06T18:31:52.623Z,99.90
2019-05-06T18:34:23.203Z,99.90
2019-05-06T18:36:52.636Z,99.90
2019-05-06T18:39:22.481Z,99.90
2019-05-06T18:41:53.126Z,99.90
2019-05-06T18:44:22.950Z,99.90
2019-05-06T18:46:53.014Z,99.90
2019-05-06T18:49:22.521Z,99.90
2019-05-06T18:51:54.118Z,99.90
2019-05-06T18:54:25.675Z,99.90
2019-05-06T18:56:54.378Z,99.90
2019-05-06T18:59:23.707Z,99.90
2019-05-06T19:01:53.975Z,99.90
2019-05-06T19:04:42.029Z,99.90
2019-05-06T19:07:16.163Z,99.90
2019-05-06T19:09:57.218Z,99.90
2019-05-06T19:12:30.514Z,99.90
2019-05-06T19:14:57.602Z,99.90
2019-05-06T19:17:26.914Z,99.90
2019-05-06T19:19:56.386Z,99.90
2019-05-06T19:22:25.825Z,99.90
2019-05-06T19:24:55.397Z,99.90
2019-05-06T19:27:24.931Z,99.90
2019-05-06T19:29:54.760Z,99.90
2019-05-06T19:32:24.728Z,99.90
2019-05-06T19:34:54.209Z,99.90
2019-05-06T19:37:24.047Z,99.90
2019-05-06T19:39:53.176Z,99.90
2019-05-06T19:42:22.592Z,99.90
2019-05-06T19:44:52.878Z,99.90
2019-05-06T19:47:22.454Z,99.90
2019-05-06T19:49:53.200Z,99.90
2019-05-06T19:52:24.958Z,99.90
2019-05-06T19:54:53.694Z,99.90
2019-05-06T19:57:22.842Z,99.90
2019-05-06T19:59:52.218Z,99.90
2019-05-06T20:02:33.289Z,99.90
2019-05-06T20:05:07.282Z,99.90
2019-05-06T20:07:53.595Z,99.90
2019-05-06T20:10:42.739Z,99.90
2019-05-06T20:13:13.549Z,99.90
2019-05-06T20:15:43.362Z,99.90
2019-05-06T20:18:12.523Z,99.90
2019-05-06T20:20:42.551Z,99.90
2019-05-06T20:23:12.506Z,99.90
2019-05-06T20:25:42.778Z,99.90
2019-05-06T20:28:13.253Z,99.90
2019-05-06T20:30:42.767Z,99.90
2019-05-06T20:33:12.517Z,99.90
2019-05-06T20:35:43.269Z,99.90
2019-05-06T20:38:12.770Z,99.90
2019-05-06T20:40:43.103Z,99.90
2019-05-06T20:43:19.635Z,99.90
2019-05-06T20:45:43.646Z,99.90
2019-05-06T20:48:13.141Z,99.90
2019-05-06T20:50:45.523Z,99.90
2019-05-06T20:53:14.995Z,99.90
2019-05-06T20:55:47.422Z,99.90
2019-05-06T20:58:16.978Z,99.90
2019-05-06T21:00:47.783Z,99.90
2019-05-06T21:03:17.160Z,99.90
2019-05-06T21:05:46.567Z,99.90
2019-05-06T21:08:15.678Z,99.90
2019-05-06T21:10:45.210Z,99.90
2019-05-06T21:13:21.989Z,99.90
2019-05-06T21:15:46.598Z,99.90
2019-05-06T21:18:15.987Z,99.90
2019-05-06T21:20:45.375Z,99.90
2019-05-06T21:23:14.501Z,99.90
2019-05-06T21:25:43.886Z,99.90
2019-05-06T21:28:13.012Z,99.90
2019-05-06T21:30:42.928Z,99.90
2019-05-06T21:33:12.592Z,99.90
2019-05-06T21:35:42.508Z,99.90
2019-05-06T21:38:12.269Z,99.90
2019-05-06T21:40:43.359Z,99.90
2019-05-06T21:43:13.276Z,99.90
2019-05-06T21:45:42.638Z,99.90
2019-05-06T21:48:13.689Z,99.90
2019-05-06T21:50:42.872Z,99.90
2019-05-06T21:53:14.434Z,99.90
2019-05-06T21:55:43.450Z,99.90
2019-05-06T21:58:12.819Z,99.90
2019-05-06T22:00:54.222Z,99.90
2019-05-06T22:03:23.412Z,99.90
2019-05-06T22:05:54.549Z,99.90
2019-05-06T22:08:23.885Z,99.90
2019-05-06T22:10:53.183Z,99.90
2019-05-06T22:13:22.322Z,99.90
2019-05-06T22:15:51.471Z,99.90
2019-05-06T22:18:22.726Z,99.90
2019-05-06T22:21:31.900Z,99.90
2019-05-06T22:24:04.577Z,99.90
2019-05-06T22:26:33.118Z,99.90
2019-05-06T22:29:02.258Z,99.90
2019-05-06T22:31:33.215Z,99.90
2019-05-06T22:34:02.822Z,99.90
2019-05-06T22:36:32.404Z,99.90
2019-05-06T22:39:02.689Z,99.90
2019-05-06T22:41:32.722Z,99.90
2019-05-06T22:44:13.281Z,99.90
2019-05-06T22:46:33.058Z,99.90
2019-05-06T22:49:02.747Z,99.90
2019-05-06T22:51:32.456Z,99.90
2019-05-06T22:54:02.723Z,99.90
2019-05-06T22:56:32.623Z,99.90
2019-05-06T22:59:03.253Z,99.90
2019-05-06T23:02:02.364Z,99.90
2019-05-06T23:04:32.844Z,99.90
2019-05-06T23:07:04.451Z,99.90
2019-05-06T23:09:33.099Z,99.90
2019-05-06T23:12:04.748Z,99.90
2019-05-06T23:14:36.949Z,99.90
2019-05-06T23:17:04.273Z,99.90
2019-05-06T23:19:33.422Z,99.90
2019-05-06T23:22:04.313Z,99.90
2019-05-06T23:24:33.809Z,99.90
2019-05-06T23:27:03.218Z,99.90
2019-05-06T23:29:32.362Z,99.90
2019-05-06T23:32:03.005Z,99.90
2019-05-06T23:34:35.569Z,99.90
2019-05-06T23:37:23.701Z,99.90
2019-05-06T23:40:39.881Z,99.90
2019-05-06T23:43:45.496Z,99.90
2019-05-06T23:46:52.738Z,99.90
2019-05-06T23:49:57.982Z,99.90
2019-05-06T23:53:03.169Z,99.90
2019-05-06T23:56:08.221Z,99.90
2019-05-06T23:58:37.379Z,99.90
